Time;durP1;ratioP1;P1;durP2;ratioP2;P2;SDS_P1;SDS_P2;PMS_P1;PMS_P2;Temp;Humidity;BMP_temperature;BMP_pressure;BME280_temperature;BME280_humidity;BME280_pressure;Samples;Min_cycle;Max_cycle;Signal;HPM_P1;HPM_P2
2022/02/16 00:00:09;;;;;;;25.30;4.65;;;6.80;99.90;;;;;;4969046;28;20125;-69
2022/02/16 00:02:35;;;;;;;29.03;4.30;;;6.70;99.90;;;;;;4964568;28;20052;-69
2022/02/16 00:05:00;;;;;;;14.38;3.88;;;6.70;99.90;;;;;;4941523;28;20054;-69
2022/02/16 00:07:26;;;;;;;18.98;4.25;;;6.70;99.90;;;;;;4968936;28;20050;-68
2022/02/16 00:09:52;;;;;;;24.17;4.32;;;6.70;99.90;;;;;;4977887;28;20061;-70
2022/02/16 00:12:23;;;;;;;20.75;4.57;;;6.70;99.90;;;;;;4988150;28;20127;-70
2022/02/16 00:14:49;;;;;;;25.92;4.47;;;6.70;99.90;;;;;;4967684;28;20518;-70
2022/02/16 00:17:15;;;;;;;21.00;4.75;;;6.60;99.90;;;;;;4983513;28;20053;-70
2022/02/16 00:19:40;;;;;;;22.90;5.30;;;6.60;99.90;;;;;;4977848;28;20096;-70
2022/02/16 00:22:06;;;;;;;19.58;4.60;;;6.60;99.90;;;;;;5008304;28;20476;-70
2022/02/16 00:24:34;;;;;;;27.10;5.60;;;6.60;99.90;;;;;;5007370;28;20221;-70
2022/02/16 00:27:00;;;;;;;22.10;5.53;;;6.60;99.90;;;;;;5001033;28;20069;-70
2022/02/16 00:29:25;;;;;;;26.02;5.85;;;6.60;99.90;;;;;;4989441;28;20146;-70
2022/02/16 00:31:51;;;;;;;25.65;5.15;;;6.60;99.90;;;;;;4994160;28;20178;-70
2022/02/16 00:34:17;;;;;;;22.13;5.78;;;6.60;99.90;;;;;;4995335;28;20054;-70
2022/02/16 00:36:42;;;;;;;27.83;5.63;;;6.60;99.90;;;;;;5002635;28;20049;-70
2022/02/16 00:39:08;;;;;;;22.40;5.78;;;6.60;99.90;;;;;;5007756;28;20149;-70
2022/02/16 00:41:34;;;;;;;19.45;6.13;;;6.60;99.90;;;;;;4989696;28;20038;-70
2022/02/16 00:43:59;;;;;;;21.08;5.30;;;6.60;99.90;;;;;;5007376;28;20120;-70
2022/02/16 00:46:25;;;;;;;17.25;4.60;;;6.50;99.90;;;;;;4986248;28;20552;-70
2022/02/16 00:48:51;;;;;;;14.30;4.03;;;6.50;99.90;;;;;;4990298;28;20041;-70
2022/02/16 00:51:17;;;;;;;21.70;5.05;;;6.50;99.90;;;;;;5007227;28;20508;-70
2022/02/16 00:53:42;;;;;;;25.58;5.22;;;6.50;99.90;;;;;;5008286;28;20307;-69
2022/02/16 00:56:08;;;;;;;27.20;6.25;;;6.50;99.90;;;;;;5007055;28;20049;-70
2022/02/16 00:58:34;;;;;;;27.23;5.28;;;6.50;99.90;;;;;;4974934;28;20045;-70
2022/02/16 01:00:59;;;;;;;23.95;5.60;;;6.50;99.90;;;;;;5004098;28;20136;-70
2022/02/16 01:03:25;;;;;;;22.80;5.25;;;6.50;99.90;;;;;;5005240;28;20108;-69
2022/02/16 01:05:51;;;;;;;21.85;4.68;;;6.40;99.90;;;;;;5007317;28;20045;-69
2022/02/16 01:08:17;;;;;;;18.25;4.95;;;6.40;99.90;;;;;;4978367;28;20046;-69
2022/02/16 01:10:43;;;;;;;24.83;5.65;;;6.40;99.90;;;;;;5007363;28;20084;-70
2022/02/16 01:13:09;;;;;;;21.63;5.50;;;6.40;99.90;;;;;;5006883;28;20042;-69
2022/02/16 01:15:35;;;;;;;20.17;5.00;;;6.40;99.90;;;;;;5005984;28;20484;-70
2022/02/16 01:18:01;;;;;;;24.77;5.85;;;6.40;99.90;;;;;;4985981;28;20089;-70
2022/02/16 01:20:27;;;;;;;23.38;5.65;;;6.40;99.90;;;;;;4989338;28;20117;-70
2022/02/16 01:22:53;;;;;;;24.35;5.65;;;6.40;99.90;;;;;;5007111;28;20129;-69
2022/02/16 01:25:21;;;;;;;20.55;5.47;;;6.40;99.90;;;;;;5006969;28;20126;-69
2022/02/16 01:27:47;;;;;;;26.77;5.65;;;6.40;99.90;;;;;;5005877;28;20181;-70
2022/02/16 01:30:14;;;;;;;26.15;6.28;;;6.50;99.90;;;;;;4975362;28;20146;-70
2022/02/16 01:32:39;;;;;;;24.55;6.22;;;6.40;99.90;;;;;;4999276;28;20491;-69
2022/02/16 01:35:05;;;;;;;27.10;5.80;;;6.50;99.90;;;;;;4988166;28;20058;-69
2022/02/16 01:37:31;;;;;;;18.83;5.68;;;6.50;99.90;;;;;;5006446;28;20495;-69
2022/02/16 01:39:57;;;;;;;18.60;4.93;;;6.50;99.90;;;;;;4993014;28;20049;-69
2022/02/16 01:42:23;;;;;;;22.20;5.22;;;6.50;99.90;;;;;;5006036;28;20052;-69
2022/02/16 01:44:50;;;;;;;15.75;4.50;;;6.50;99.90;;;;;;5006635;28;20077;-70
2022/02/16 01:47:15;;;;;;;23.25;4.78;;;6.60;99.90;;;;;;5006680;28;20124;-70
2022/02/16 01:49:42;;;;;;;19.45;4.72;;;6.60;99.90;;;;;;4996551;28;20585;-69
2022/02/16 01:52:09;;;;;;;17.48;4.00;;;6.60;99.90;;;;;;5004244;28;20049;-69
2022/02/16 01:54:35;;;;;;;23.98;4.97;;;6.60;99.90;;;;;;5006691;28;20042;-70
2022/02/16 01:57:03;;;;;;;31.25;7.03;;;6.60;99.90;;;;;;5005566;28;20481;-69
2022/02/16 01:59:30;;;;;;;19.77;4.25;;;6.60;99.90;;;;;;4982648;28;20105;-69
2022/02/16 02:01:56;;;;;;;33.05;5.38;;;6.60;99.90;;;;;;4983125;28;20051;-69
2022/02/16 02:04:23;;;;;;;23.38;4.18;;;6.60;99.90;;;;;;5006018;28;20037;-70
2022/02/16 02:06:49;;;;;;;27.10;5.00;;;6.60;99.90;;;;;;4988950;28;20125;-69
2022/02/16 02:09:15;;;;;;;22.65;4.93;;;6.70;99.90;;;;;;5005020;28;20464;-69
2022/02/16 02:11:42;;;;;;;30.52;4.97;;;6.70;99.90;;;;;;4980107;28;20080;-69
2022/02/16 02:14:09;;;;;;;27.60;5.00;;;6.80;99.90;;;;;;4988168;28;20484;-69
2022/02/16 02:16:37;;;;;;;29.33;4.65;;;6.80;99.90;;;;;;5005892;28;20119;-69
2022/02/16 02:19:04;;;;;;;31.83;5.93;;;6.80;99.90;;;;;;4987207;28;20143;-70
2022/02/16 02:21:29;;;;;;;25.75;4.28;;;6.80;99.90;;;;;;4992571;28;20057;-69
2022/02/16 02:23:57;;;;;;;23.30;4.60;;;6.80;99.90;;;;;;4972657;28;20038;-69
2022/02/16 02:26:23;;;;;;;22.85;3.03;;;6.80;99.90;;;;;;5005869;28;20445;-69
2022/02/16 02:28:49;;;;;;;18.85;3.53;;;6.80;99.90;;;;;;5006366;28;20092;-70
2022/02/16 02:31:15;;;;;;;10.80;2.83;;;6.80;99.90;;;;;;4982698;28;20078;-69
2022/02/16 02:33:41;;;;;;;15.90;2.58;;;6.80;99.90;;;;;;4968571;28;20379;-69
2022/02/16 02:36:09;;;;;;;14.55;2.75;;;6.80;99.90;;;;;;4967164;28;20046;-69
2022/02/16 02:38:38;;;;;;;20.25;3.10;;;6.90;99.90;;;;;;5005843;28;20052;-69
2022/02/16 02:41:05;;;;;;;21.05;3.72;;;6.80;99.90;;;;;;4993655;28;20509;-69
2022/02/16 02:43:31;;;;;;;32.40;3.78;;;6.90;99.90;;;;;;4978400;28;20065;-70
2022/02/16 02:46:01;;;;;;;28.15;3.25;;;6.80;99.90;;;;;;4988966;28;20041;-69
2022/02/16 02:48:27;;;;;;;26.08;3.70;;;6.90;99.90;;;;;;4987702;28;20081;-69
2022/02/16 02:50:54;;;;;;;17.63;3.42;;;6.90;99.90;;;;;;4980577;28;20050;-69
2022/02/16 02:53:20;;;;;;;25.85;4.10;;;6.90;99.90;;;;;;4985176;28;20056;-69
2022/02/16 02:55:46;;;;;;;22.70;3.47;;;6.90;99.90;;;;;;4988003;28;20509;-69
2022/02/16 02:58:12;;;;;;;17.40;2.55;;;7.00;99.90;;;;;;5004637;28;20133;-69
2022/02/16 03:00:38;;;;;;;17.88;2.97;;;7.00;99.90;;;;;;4968160;28;20038;-69
2022/02/16 03:03:04;;;;;;;22.20;3.05;;;7.00;99.90;;;;;;4992656;28;20512;-69
2022/02/16 03:05:30;;;;;;;21.55;3.65;;;7.00;99.90;;;;;;5005445;28;20076;-69
2022/02/16 03:07:55;;;;;;;18.25;4.03;;;7.00;99.90;;;;;;4990557;28;20440;-70
2022/02/16 03:10:21;;;;;;;21.70;2.95;;;7.00;99.90;;;;;;5009205;28;20053;-69
2022/02/16 03:12:47;;;;;;;26.63;3.67;;;7.00;99.90;;;;;;4998938;28;20267;-69
2022/02/16 03:15:13;;;;;;;32.35;4.28;;;7.00;99.90;;;;;;5009369;28;20165;-69
2022/02/16 03:17:39;;;;;;;25.25;4.15;;;7.00;99.90;;;;;;4974362;28;20046;-70
2022/02/16 03:20:07;;;;;;;29.35;4.60;;;7.00;99.90;;;;;;5007948;28;20054;-69
2022/02/16 03:22:33;;;;;;;27.27;3.60;;;6.90;99.90;;;;;;4984476;28;20056;-69
2022/02/16 03:25:02;;;;;;;18.45;3.97;;;6.90;99.90;;;;;;4991922;28;20439;-70
2022/02/16 03:27:29;;;;;;;32.67;4.70;;;6.90;99.90;;;;;;5009177;28;20042;-69
2022/02/16 03:29:55;;;;;;;19.02;4.18;;;6.90;99.90;;;;;;4982483;28;20396;-70
2022/02/16 03:32:21;;;;;;;23.20;4.50;;;6.90;99.90;;;;;;4985511;28;20051;-70
2022/02/16 03:34:47;;;;;;;20.52;4.32;;;6.90;99.90;;;;;;5006921;28;20034;-70
2022/02/16 03:37:13;;;;;;;25.52;5.25;;;6.90;99.90;;;;;;5009226;28;20455;-69
2022/02/16 03:39:39;;;;;;;18.15;5.25;;;6.90;99.90;;;;;;5008476;28;20054;-69
2022/02/16 03:42:05;;;;;;;21.00;4.97;;;6.80;99.90;;;;;;5009144;28;20053;-70
2022/02/16 03:44:32;;;;;;;24.38;5.22;;;6.90;99.90;;;;;;4971205;28;20038;-69
2022/02/16 03:46:58;;;;;;;18.58;6.10;;;6.90;99.90;;;;;;4991804;28;20073;-70
2022/02/16 03:49:25;;;;;;;31.42;6.53;;;6.90;99.90;;;;;;5008781;28;20500;-69
2022/02/16 03:51:51;;;;;;;20.23;5.85;;;6.90;99.90;;;;;;4991127;28;20176;-69
2022/02/16 03:54:17;;;;;;;21.48;7.47;;;6.90;99.90;;;;;;4991050;28;20050;-68
2022/02/16 03:56:43;;;;;;;23.02;7.10;;;6.90;99.90;;;;;;4974048;28;20088;-69
2022/02/16 03:59:09;;;;;;;22.88;7.55;;;6.90;99.90;;;;;;5008579;28;20079;-69
2022/02/16 04:01:35;;;;;;;31.90;8.13;;;6.90;99.90;;;;;;4995321;28;20556;-69
2022/02/16 04:04:01;;;;;;;27.02;8.93;;;6.90;99.90;;;;;;5008815;28;20041;-69
2022/02/16 04:06:27;;;;;;;21.88;9.50;;;6.90;99.90;;;;;;4990601;28;20049;-70
2022/02/16 04:08:52;;;;;;;19.40;10.25;;;6.90;99.90;;;;;;4998619;28;20050;-69
2022/02/16 04:11:26;;;;;;;19.92;10.02;;;7.00;99.90;;;;;;4990860;28;20196;-69
2022/02/16 04:13:53;;;;;;;24.92;10.40;;;7.00;99.90;;;;;;4990141;28;20046;-70
2022/02/16 04:16:19;;;;;;;18.70;11.43;;;6.90;99.90;;;;;;4990764;28;20555;-70
2022/02/16 04:18:45;;;;;;;16.73;10.82;;;7.00;99.90;;;;;;4988987;28;20522;-70
2022/02/16 04:21:10;;;;;;;18.45;10.40;;;7.00;99.90;;;;;;4997874;28;20043;-70
2022/02/16 04:23:37;;;;;;;20.02;11.05;;;7.10;99.90;;;;;;4997647;28;20037;-70
2022/02/16 04:26:02;;;;;;;14.70;10.18;;;7.00;99.90;;;;;;4990910;28;20529;-70
2022/02/16 04:28:28;;;;;;;13.48;9.02;;;7.00;99.90;;;;;;5008017;28;20081;-69
2022/02/16 04:30:54;;;;;;;15.25;11.48;;;7.10;99.90;;;;;;4987040;28;20370;-70
2022/02/16 04:33:20;;;;;;;15.30;10.98;;;7.10;99.90;;;;;;4976079;28;20123;-70
2022/02/16 04:35:46;;;;;;;16.92;10.18;;;7.10;99.90;;;;;;4967241;28;20125;-70
2022/02/16 04:38:12;;;;;;;12.18;10.35;;;7.10;99.90;;;;;;4970964;28;20549;-69
2022/02/16 04:40:38;;;;;;;12.18;8.00;;;7.10;99.90;;;;;;4987544;28;20038;-69
2022/02/16 04:43:05;;;;;;;12.32;11.02;;;7.20;99.90;;;;;;4988637;28;20405;-69
2022/02/16 04:45:32;;;;;;;14.15;10.63;;;7.20;99.90;;;;;;4953988;28;20042;-69
2022/02/16 04:47:59;;;;;;;14.57;12.05;;;7.20;99.90;;;;;;4986960;28;20042;-69
2022/02/16 04:50:26;;;;;;;13.60;11.80;;;7.30;99.90;;;;;;4970468;28;20042;-69
2022/02/16 04:52:54;;;;;;;14.82;11.35;;;7.30;99.90;;;;;;4987568;28;20050;-69
2022/02/16 04:55:22;;;;;;;17.23;12.52;;;7.30;99.90;;;;;;4993462;28;20037;-69
2022/02/16 04:57:48;;;;;;;16.20;12.18;;;7.30;99.90;;;;;;4968608;28;20428;-69
2022/02/16 05:00:15;;;;;;;16.20;12.85;;;7.40;99.90;;;;;;4982809;28;20640;-69
2022/02/16 05:02:41;;;;;;;16.77;12.60;;;7.40;99.90;;;;;;4978107;28;20520;-69
2022/02/16 05:05:08;;;;;;;17.63;12.07;;;7.40;99.90;;;;;;4964158;28;20534;-69
2022/02/16 05:07:34;;;;;;;13.68;11.77;;;7.40;99.90;;;;;;4982680;28;20038;-69
2022/02/16 05:10:00;;;;;;;18.27;11.65;;;7.40;99.90;;;;;;4957971;28;20077;-69
2022/02/16 05:12:26;;;;;;;13.93;11.10;;;7.40;99.90;;;;;;4985712;28;20045;-69
2022/02/16 05:14:52;;;;;;;13.02;10.10;;;7.40;99.90;;;;;;4989176;28;20041;-69
2022/02/16 05:17:18;;;;;;;12.65;10.25;;;7.40;99.90;;;;;;5006967;28;20466;-69
2022/02/16 05:19:43;;;;;;;10.90;9.55;;;7.40;99.90;;;;;;5006127;28;20192;-69
2022/02/16 05:22:10;;;;;;;19.42;11.13;;;7.40;99.90;;;;;;4987162;28;20150;-69
2022/02/16 05:24:36;;;;;;;11.65;9.02;;;7.40;99.90;;;;;;5005040;28;20133;-69
2022/02/16 05:27:03;;;;;;;12.93;9.55;;;7.40;99.90;;;;;;5006680;28;20053;-69
2022/02/16 05:29:29;;;;;;;11.98;9.80;;;7.50;99.90;;;;;;5006608;28;20128;-69
2022/02/16 05:31:55;;;;;;;13.75;9.07;;;7.50;99.90;;;;;;5002289;28;20177;-69
2022/02/16 05:34:21;;;;;;;14.13;8.07;;;7.50;99.90;;;;;;5005243;28;20038;-70
2022/02/16 05:36:52;;;;;;;14.40;9.18;;;7.50;99.90;;;;;;4960761;28;20332;-70
2022/02/16 05:39:18;;;;;;;12.15;8.88;;;7.50;99.90;;;;;;4995201;28;20050;-69
2022/02/16 05:41:44;;;;;;;10.48;7.20;;;7.50;99.90;;;;;;5005083;28;20057;-69
2022/02/16 05:44:09;;;;;;;17.48;9.05;;;7.50;99.90;;;;;;5007250;28;20053;-69
2022/02/16 05:46:35;;;;;;;8.20;6.18;;;7.50;99.90;;;;;;5006422;28;20424;-69
2022/02/16 05:49:01;;;;;;;11.98;5.82;;;7.50;99.90;;;;;;5001206;28;20082;-70
2022/02/16 05:51:27;;;;;;;12.68;7.93;;;7.60;99.90;;;;;;5002067;28;20046;-70
2022/02/16 05:53:53;;;;;;;10.85;5.28;;;7.60;99.90;;;;;;4988405;28;20042;-69
2022/02/16 05:56:19;;;;;;;9.65;6.03;;;7.60;99.90;;;;;;4989366;28;20603;-70
2022/02/16 05:58:45;;;;;;;8.95;5.25;;;7.60;99.90;;;;;;5001976;28;20373;-69
2022/02/16 06:01:10;;;;;;;9.88;5.90;;;7.60;99.90;;;;;;4999624;28;20133;-69
2022/02/16 06:03:38;;;;;;;9.25;5.68;;;7.60;99.90;;;;;;4983375;28;20054;-70
2022/02/16 06:06:04;;;;;;;6.13;5.18;;;7.60;99.90;;;;;;5005049;28;20046;-69
2022/02/16 06:08:31;;;;;;;12.55;6.35;;;7.70;99.90;;;;;;4985965;28;20527;-70
2022/02/16 06:10:57;;;;;;;9.02;5.75;;;7.70;99.90;;;;;;4987961;28;20038;-69
2022/02/16 06:13:23;;;;;;;10.18;6.45;;;7.70;99.90;;;;;;5006742;28;20046;-69
2022/02/16 06:15:49;;;;;;;6.15;4.63;;;7.70;99.90;;;;;;5005351;28;20080;-70
2022/02/16 06:18:15;;;;;;;7.88;4.88;;;7.70;99.90;;;;;;5006055;28;20129;-69
2022/02/16 06:20:41;;;;;;;9.55;5.32;;;7.70;99.90;;;;;;5003631;28;20050;-69
2022/02/16 06:23:06;;;;;;;7.10;4.45;;;7.70;99.90;;;;;;4992847;28;20104;-70
2022/02/16 06:25:32;;;;;;;6.20;5.65;;;7.70;99.90;;;;;;5006034;28;20041;-69
2022/02/16 06:28:03;;;;;;;7.57;5.53;;;7.70;99.90;;;;;;4987818;28;20104;-70
2022/02/16 06:30:29;;;;;;;5.63;4.32;;;7.80;99.90;;;;;;4995874;28;20378;-70
2022/02/16 06:32:54;;;;;;;5.47;4.97;;;7.80;99.90;;;;;;4983387;28;20042;-70
2022/02/16 06:35:21;;;;;;;6.65;5.93;;;7.80;99.90;;;;;;4988456;28;20124;-70
2022/02/16 06:37:46;;;;;;;5.82;5.20;;;7.80;99.90;;;;;;5005616;28;20048;-69
2022/02/16 06:40:13;;;;;;;6.15;5.55;;;7.80;99.90;;;;;;4985733;28;20050;-69
2022/02/16 06:42:40;;;;;;;9.32;6.55;;;7.80;99.90;;;;;;4966860;28;20121;-70
2022/02/16 06:45:09;;;;;;;8.25;6.13;;;7.90;99.90;;;;;;5009356;28;20088;-69
2022/02/16 06:47:36;;;;;;;7.25;6.00;;;7.90;99.90;;;;;;5009983;28;20065;-70
2022/02/16 06:50:03;;;;;;;6.93;5.15;;;7.90;99.90;;;;;;5009037;28;20157;-71
2022/02/16 06:52:29;;;;;;;6.85;5.28;;;7.90;99.90;;;;;;5001670;28;20049;-70
2022/02/16 06:54:55;;;;;;;5.03;4.60;;;7.90;99.90;;;;;;5009231;28;20053;-70
2022/02/16 06:57:21;;;;;;;8.15;3.72;;;7.90;99.90;;;;;;5010547;28;20502;-70
2022/02/16 06:59:47;;;;;;;9.13;4.78;;;8.00;99.90;;;;;;5009045;28;20065;-70
2022/02/16 07:02:13;;;;;;;5.43;4.70;;;8.00;99.90;;;;;;5003170;28;20042;-70
2022/02/16 07:04:38;;;;;;;6.82;4.70;;;8.00;99.90;;;;;;4992164;28;20716;-69
2022/02/16 07:07:04;;;;;;;7.07;5.10;;;8.00;99.90;;;;;;4991280;28;20049;-70
2022/02/16 07:09:31;;;;;;;7.82;5.45;;;8.00;99.90;;;;;;4992035;28;20096;-70
2022/02/16 07:11:57;;;;;;;5.47;5.05;;;8.00;99.90;;;;;;4984608;28;20049;-70
2022/02/16 07:14:23;;;;;;;3.60;2.78;;;8.00;99.90;;;;;;5007930;28;20369;-69
2022/02/16 07:16:50;;;;;;;5.68;2.03;;;8.00;99.90;;;;;;5008785;28;20050;-70
2022/02/16 07:19:16;;;;;;;3.08;2.95;;;8.00;99.90;;;;;;5009184;28;20137;-70
2022/02/16 07:21:42;;;;;;;4.95;4.03;;;8.10;99.90;;;;;;5007870;28;20065;-70
2022/02/16 07:24:08;;;;;;;2.47;2.35;;;8.10;99.90;;;;;;5003505;28;20041;-70
2022/02/16 07:26:34;;;;;;;3.30;3.10;;;8.10;99.90;;;;;;5009031;28;20400;-70
2022/02/16 07:29:00;;;;;;;3.83;3.28;;;8.10;99.90;;;;;;4975062;28;20049;-70
2022/02/16 07:31:26;;;;;;;2.47;1.75;;;8.10;99.90;;;;;;5006478;28;20038;-70
2022/02/16 07:33:52;;;;;;;2.42;2.22;;;8.20;99.90;;;;;;4987808;28;20554;-70
2022/02/16 07:36:18;;;;;;;4.03;3.03;;;8.20;99.90;;;;;;5007675;28;20045;-69
2022/02/16 07:38:43;;;;;;;2.28;2.20;;;8.20;99.90;;;;;;4982220;28;20050;-70
2022/02/16 07:41:09;;;;;;;1.73;1.63;;;8.20;99.90;;;;;;4985241;28;20050;-70
2022/02/16 07:43:35;;;;;;;1.60;1.60;;;8.20;99.90;;;;;;5001837;28;20031;-70
2022/02/16 07:46:01;;;;;;;2.50;1.38;;;8.30;99.90;;;;;;4983159;28;20436;-70
2022/02/16 07:48:26;;;;;;;2.15;2.05;;;8.30;99.90;;;;;;5007191;28;20122;-69
2022/02/16 07:50:52;;;;;;;1.73;1.63;;;8.40;99.90;;;;;;4994080;28;20053;-69
2022/02/16 07:53:18;;;;;;;2.15;1.65;;;8.40;99.90;;;;;;5005090;28;20053;-69
2022/02/16 07:55:44;;;;;;;1.17;1.13;;;8.40;99.90;;;;;;4996675;28;20156;-69
2022/02/16 07:58:10;;;;;;;1.05;0.95;;;8.40;99.90;;;;;;4973966;28;20073;-69
2022/02/16 08:00:37;;;;;;;0.75;0.75;;;8.50;99.90;;;;;;5003797;28;20056;-70
2022/02/16 08:03:07;;;;;;;1.10;1.10;;;8.50;99.90;;;;;;4973309;28;20511;-70
2022/02/16 08:05:34;;;;;;;1.33;0.90;;;8.60;99.90;;;;;;4987910;28;20046;-69
2022/02/16 08:08:00;;;;;;;0.55;0.55;;;8.60;99.90;;;;;;4967146;28;20114;-70
2022/02/16 08:10:26;;;;;;;1.08;1.08;;;8.70;99.90;;;;;;4993072;28;20042;-69
2022/02/16 08:12:56;;;;;;;0.30;0.30;;;8.80;99.90;;;;;;4953656;28;20486;-70
2022/02/16 08:15:31;;;;;;;0.60;0.60;;;8.80;99.90;;;;;;4976792;28;20046;-70
2022/02/16 08:17:57;;;;;;;2.45;0.40;;;8.80;99.90;;;;;;4978608;28;20097;-70
2022/02/16 08:20:23;;;;;;;0.40;0.40;;;8.80;99.90;;;;;;4970275;28;20537;-70
2022/02/16 08:22:49;;;;;;;1.63;0.70;;;8.90;99.90;;;;;;4969011;28;20039;-70
2022/02/16 08:25:15;;;;;;;0.85;0.40;;;8.90;99.90;;;;;;4978252;28;20129;-70
2022/02/16 08:27:45;;;;;;;0.35;0.30;;;9.00;99.90;;;;;;4952637;28;20034;-70
2022/02/16 08:30:11;;;;;;;;;;;9.00;99.90;;;;;;4979950;28;20082;-70
2022/02/16 08:32:38;;;;;;;0.70;0.70;;;9.00;99.90;;;;;;4971604;28;19929;-70
2022/02/16 08:35:09;;;;;;;0.30;0.30;;;9.10;99.90;;;;;;4970450;28;20046;-70
2022/02/16 08:37:35;;;;;;;0.20;0.20;;;9.10;99.90;;;;;;4959757;28;20057;-70
2022/02/16 08:40:03;;;;;;;0.10;0.10;;;9.10;99.90;;;;;;4973950;28;20195;-70
2022/02/16 08:42:29;;;;;;;2.67;0.50;;;9.20;99.90;;;;;;4988123;28;20042;-71
2022/02/16 08:44:58;;;;;;;0.30;0.30;;;9.20;99.90;;;;;;4988126;28;20047;-72
2022/02/16 08:47:24;;;;;;;1.52;0.30;;;9.20;99.90;;;;;;4969745;28;20052;-72
2022/02/16 08:49:50;;;;;;;0.10;0.10;;;9.30;99.90;;;;;;4954411;28;20061;-71
2022/02/16 08:52:15;;;;;;;0.10;0.10;;;9.40;99.90;;;;;;4963534;28;20047;-72
2022/02/16 08:54:42;;;;;;;0.82;0.03;;;9.40;99.90;;;;;;4969187;28;20141;-70
2022/02/16 08:57:07;;;;;;;0.22;0.20;;;9.40;99.90;;;;;;4968012;28;20122;-71
2022/02/16 08:59:33;;;;;;;0.52;0.30;;;9.50;99.90;;;;;;4969057;28;20648;-71
2022/02/16 09:01:59;;;;;;;0.20;0.20;;;9.50;99.90;;;;;;4962449;28;20038;-71
2022/02/16 09:04:25;;;;;;;0.30;0.30;;;9.60;99.90;;;;;;4969624;28;20050;-71
2022/02/16 09:09:38;;;;;;;0.05;0.05;;;9.70;99.90;;;;;;4959751;28;20050;-71
2022/02/16 09:12:05;;;;;;;0.20;0.20;;;9.70;99.90;;;;;;4975513;28;20504;-71
2022/02/16 09:14:31;;;;;;;0.10;0.10;;;9.70;99.90;;;;;;4953256;28;20370;-71
2022/02/16 09:16:58;;;;;;;0.30;0.30;;;9.70;99.90;;;;;;4950952;28;20129;-71
2022/02/16 09:19:25;;;;;;;0.13;0.13;;;9.70;99.90;;;;;;4984430;28;20408;-71
2022/02/16 09:21:52;;;;;;;0.05;0.05;;;9.80;99.90;;;;;;4950530;28;20322;-72
2022/02/16 09:24:19;;;;;;;0.05;0.05;;;9.80;99.90;;;;;;4966563;28;20042;-72
2022/02/16 09:26:50;;;;;;;0.10;0.10;;;9.80;99.90;;;;;;4963657;28;20549;-72
2022/02/16 09:29:19;;;;;;;;;;;9.90;99.90;;;;;;4965089;28;20046;-71
2022/02/16 09:31:45;;;;;;;1.48;0.20;;;9.90;99.90;;;;;;4967751;28;19929;-71
2022/02/16 09:34:11;;;;;;;0.82;0.50;;;9.90;99.90;;;;;;4969301;28;20504;-71
2022/02/16 09:36:37;;;;;;;2.03;0.60;;;10.00;99.90;;;;;;4986832;28;20050;-71
2022/02/16 09:39:03;;;;;;;0.95;0.75;;;10.10;99.90;;;;;;4968287;28;20054;-71
2022/02/16 09:41:31;;;;;;;0.88;0.35;;;10.10;99.90;;;;;;4973048;28;20034;-71
2022/02/16 09:44:00;;;;;;;0.40;0.40;;;10.10;99.90;;;;;;4968260;28;20393;-72
2022/02/16 09:46:27;;;;;;;4.43;1.55;;;10.20;99.90;;;;;;4983276;28;20456;-71
2022/02/16 09:48:53;;;;;;;3.03;0.80;;;10.20;99.90;;;;;;4968214;28;20074;-71
2022/02/16 09:51:19;;;;;;;10.18;2.08;;;10.30;99.90;;;;;;4968376;28;20101;-71
2022/02/16 09:53:45;;;;;;;4.70;1.35;;;10.30;99.90;;;;;;4986752;28;20045;-71
2022/02/16 09:56:11;;;;;;;8.05;1.30;;;10.40;99.90;;;;;;4968933;28;20567;-71
2022/02/16 09:58:37;;;;;;;4.03;1.23;;;10.50;99.90;;;;;;4968887;28;20034;-71
2022/02/16 10:01:15;;;;;;;3.35;1.42;;;10.50;99.90;;;;;;4982917;28;20054;-71
2022/02/16 10:04:02;;;;;;;8.70;2.08;;;10.60;99.90;;;;;;4986192;28;20062;-71
2022/02/16 10:06:39;;;;;;;11.32;1.70;;;10.60;99.90;;;;;;4983339;28;20093;-71
2022/02/16 10:09:07;;;;;;;11.50;2.20;;;10.70;99.90;;;;;;4966169;28;20061;-71
2022/02/16 10:11:34;;;;;;;7.25;1.85;;;10.70;99.90;;;;;;5002020;28;20051;-72
2022/02/16 10:14:29;;;;;;;5.13;0.88;;;10.80;99.90;;;;;;4983470;28;20076;-71
2022/02/16 10:16:56;;;;;;;4.65;0.93;;;10.90;99.90;;;;;;5005870;28;20045;-71
2022/02/16 10:19:23;;;;;;;11.02;1.63;;;10.90;99.90;;;;;;4978891;28;20058;-71
2022/02/16 10:22:22;;;;;;;11.40;1.95;;;11.00;99.90;;;;;;4996152;28;20421;-71
2022/02/16 10:24:49;;;;;;;6.30;1.37;;;11.10;99.90;;;;;;4936560;28;20409;-70
2022/02/16 10:27:16;;;;;;;17.52;2.35;;;11.20;99.90;;;;;;4952126;28;20046;-71
2022/02/16 10:29:43;;;;;;;12.35;1.65;;;11.30;99.90;;;;;;4968896;28;20042;-71
2022/02/16 10:32:10;;;;;;;7.82;1.70;;;11.40;99.90;;;;;;4962999;28;20366;-71
2022/02/16 10:34:53;;;;;;;12.85;1.95;;;11.50;99.90;;;;;;4985858;28;20061;-71
2022/02/16 10:37:39;;;;;;;10.50;1.98;;;11.60;99.90;;;;;;4985825;28;20461;-71
2022/02/16 10:40:13;;;;;;;5.47;1.23;;;11.60;99.90;;;;;;4950843;28;20054;-71
2022/02/16 10:43:00;;;;;;;3.75;1.40;;;11.60;99.90;;;;;;4964847;28;20097;-70
2022/02/16 10:45:29;;;;;;;5.95;0.65;;;11.60;99.90;;;;;;4947887;28;20615;-71
2022/02/16 10:48:02;;;;;;;11.27;1.35;;;11.60;99.90;;;;;;4985949;28;20439;-71
2022/02/16 10:50:34;;;;;;;13.07;1.52;;;11.60;99.90;;;;;;4965431;28;20047;-71
2022/02/16 10:53:03;;;;;;;9.18;1.45;;;11.70;99.90;;;;;;4985522;28;20492;-71
2022/02/16 10:55:47;;;;;;;5.65;1.08;;;11.70;99.90;;;;;;4968270;28;20049;-71
2022/02/16 10:58:24;;;;;;;3.67;0.70;;;11.70;99.90;;;;;;4980698;28;20038;-71
2022/02/16 11:00:56;;;;;;;3.75;0.68;;;11.80;99.90;;;;;;4967291;28;20050;-71
2022/02/16 11:03:35;;;;;;;2.30;0.80;;;11.80;99.90;;;;;;4983952;28;20046;-70
2022/02/16 11:06:11;;;;;;;2.95;0.77;;;11.90;99.90;;;;;;4962332;28;20476;-71
2022/02/16 11:08:40;;;;;;;4.35;1.33;;;11.90;99.90;;;;;;4971272;28;20043;-71
2022/02/16 11:11:09;;;;;;;10.57;1.60;;;12.00;99.90;;;;;;4961147;28;20058;-71
2022/02/16 11:13:37;;;;;;;6.55;1.40;;;12.00;99.90;;;;;;4949377;28;20034;-71
2022/02/16 11:16:04;;;;;;;6.20;1.23;;;12.00;99.90;;;;;;4968821;28;20050;-71
2022/02/16 11:18:44;;;;;;;13.57;1.67;;;12.00;99.90;;;;;;4969694;28;20208;-71
2022/02/16 11:21:21;;;;;;;10.18;1.73;;;12.00;99.90;;;;;;4976607;28;20411;-72
2022/02/16 11:23:52;;;;;;;3.60;1.02;;;12.10;99.90;;;;;;4973350;28;20047;-71
2022/02/16 11:26:41;;;;;;;4.68;1.30;;;12.10;99.90;;;;;;4950302;28;20526;-71
2022/02/16 11:29:31;;;;;;;5.90;1.00;;;12.10;99.90;;;;;;4972677;28;20038;-72
2022/02/16 11:32:04;;;;;;;;;;;12.10;99.90;;;;;;4945403;28;20052;-71
2022/02/16 11:34:30;;;;;;;9.20;2.25;;;12.10;99.90;;;;;;4964613;28;20427;-71
2022/02/16 11:36:58;;;;;;;11.73;0.98;;;12.10;99.90;;;;;;4970232;28;20050;-71
2022/02/16 11:39:41;;;;;;;5.07;1.27;;;12.10;99.90;;;;;;4981509;28;20112;-71
2022/02/16 11:42:09;;;;;;;6.85;1.27;;;12.10;99.90;;;;;;4988112;28;20093;-71
2022/02/16 11:44:50;;;;;;;5.53;0.77;;;12.10;99.90;;;;;;4968869;28;20085;-71
2022/02/16 11:47:34;;;;;;;4.22;1.05;;;12.10;99.90;;;;;;4969268;28;20081;-71
2022/02/16 11:50:09;;;;;;;7.72;2.17;;;12.10;99.90;;;;;;4979647;28;20035;-71
2022/02/16 11:52:51;;;;;;;8.48;2.13;;;12.10;99.90;;;;;;4967704;28;20035;-70
2022/02/16 11:55:21;;;;;;;5.43;0.93;;;12.10;99.90;;;;;;4973101;28;20042;-71
2022/02/16 11:57:49;;;;;;;6.55;1.52;;;12.10;99.90;;;;;;4975420;28;20043;-71
2022/02/16 12:00:15;;;;;;;4.00;0.82;;;12.10;99.90;;;;;;4950574;28;20560;-71
2022/02/16 12:02:56;;;;;;;5.65;1.70;;;12.20;99.90;;;;;;4968596;28;20042;-72
2022/02/16 12:05:55;;;;;;;4.43;1.25;;;12.20;99.90;;;;;;4986845;28;20555;-71
2022/02/16 12:08:26;;;;;;;11.73;1.40;;;12.30;99.90;;;;;;4965920;28;20057;-71
2022/02/16 12:10:55;;;;;;;;;;;12.20;99.90;;;;;;4980325;28;20800;-72
2022/02/16 12:13:33;;;;;;;6.55;0.98;;;12.20;99.90;;;;;;4968477;28;20373;-71
2022/02/16 12:16:06;;;;;;;6.45;1.77;;;12.20;99.90;;;;;;4951917;28;20085;-71
2022/02/16 12:18:32;;;;;;;7.88;0.85;;;12.10;99.90;;;;;;4976792;28;20409;-71
2022/02/16 12:20:59;;;;;;;2.60;1.10;;;12.20;99.90;;;;;;4984531;28;20046;-70
2022/02/16 12:23:29;;;;;;;8.25;1.02;;;12.20;99.90;;;;;;4968494;28;20110;-70
2022/02/16 12:26:04;;;;;;;3.05;1.10;;;12.20;99.90;;;;;;4979893;28;20426;-70
2022/02/16 12:28:43;;;;;;;7.55;1.25;;;12.10;99.90;;;;;;4976580;28;20035;-70
2022/02/16 12:31:13;;;;;;;3.58;0.65;;;12.10;99.90;;;;;;4966622;28;20038;-70
2022/02/16 12:33:39;;;;;;;3.28;1.02;;;12.10;99.90;;;;;;4955183;28;20130;-71
2022/02/16 12:36:07;;;;;;;1.88;0.47;;;12.10;99.90;;;;;;4974423;28;20438;-71
2022/02/16 12:38:34;;;;;;;6.35;0.80;;;12.10;99.90;;;;;;4952300;28;20042;-71
2022/02/16 12:41:08;;;;;;;2.55;0.88;;;12.10;99.90;;;;;;4987512;28;20035;-70
2022/02/16 12:43:35;;;;;;;1.75;0.75;;;12.10;99.90;;;;;;4963346;28;20316;-70
2022/02/16 12:46:01;;;;;;;1.25;0.98;;;12.00;99.90;;;;;;4973197;28;20042;-70
2022/02/16 12:48:26;;;;;;;12.00;1.92;;;12.00;99.90;;;;;;4986157;28;20081;-70
2022/02/16 12:51:04;;;;;;;4.45;1.27;;;12.00;99.90;;;;;;4986074;28;20449;-70
2022/02/16 12:53:37;;;;;;;3.40;1.10;;;12.00;99.90;;;;;;4987366;28;20081;-71
2022/02/16 12:56:10;;;;;;;8.95;2.20;;;11.90;99.90;;;;;;4990903;28;20054;-70